NCAR-RAP Real-Time Weather Data

Output produced by METARs form (12 May 2021  12:05 UTC)
found at http://weather.rap.ucar.edu/surface/
 
KJFK 121151Z 32016G23KT 10SM FEW042 FEW130 FEW250 10/M01 A3017 RMK AO2 SLP216 T01001006 10106 20083 51015
KJFK 121051Z 29014G20KT 10SM FEW130 FEW250 09/M01 A3016 RMK AO2 SLP211 T00891011
KJFK 120951Z 27011KT 10SM FEW250 08/M02 A3014 RMK AO2 SLP207 T00831017 $
KJFK 120851Z 31015G21KT 10SM SCT250 08/M02 A3013 RMK AO2 SLP201 T00831022 53006 $
KJFK 120751Z 30014G24KT 10SM BKN210 09/M03 A3012 RMK AO2 SLP198 T00891028 $
KJFK 120651Z 31018G26KT 10SM BKN210 10/M03 A3011 RMK AO2 PK WND 32028/0633 SLP196 T01001028 $
KJFK 120551Z 32019G26KT 10SM BKN210 11/M03 A3011 RMK AO2 PK WND 32026/0551 SLP195 T01061033 10156 20106 50010 $
KJFK 120451Z 32022G30KT 10SM BKN220 12/M04 A3011 RMK AO2 PK WND 33030/0445 SLP196 T01171039 401940100 $
KJFK 120351Z 31011KT 10SM SCT090 BKN250 12/M02 A3010 RMK AO2 SLP192 T01221022 $
KJFK 120251Z 32014G22KT 10SM SCT055 BKN095 OVC250 13/M02 A3008 RMK AO2 SLP185 T01331017 51020 $
KJFK 120151Z 31016G19KT 10SM FEW065 BKN110 OVC250 14/M01 A3006 RMK AO2 SLP179 T01391006 $
KJFK 120051Z 31013KT 10SM FEW075 BKN095 BKN250 15/01 A3004 RMK AO2 SLP171 T01500006 $
KJFK 112351Z 27014KT 10SM FEW040 SCT075 BKN090 BKN130 BKN250 16/01 A3002 RMK AO2 SLP165 VCSH W T01560006 10194 20133 53009 $
KJFK 112251Z 30016KT 10SM FEW070 BKN100 16/01 A3000 RMK AO2 SLP159 VIRGA N-S T01610006 $
KJFK 112151Z 25017G20KT 10SM BKN080 17/01 A3000 RMK AO2 WSHFT 2133 SLP158 VIRGA OHD AND NE-SW T01670006 $